sensor_id;sensor_type;location;lat;lon;timestamp;P1;durP1;ratioP1;P2;durP2;ratioP2
25932;SDS011;13731;51.166;4.474;2023-12-20T00:01:42;324.00;;;304.85;;
25932;SDS011;13731;51.166;4.474;2023-12-20T00:04:08;315.38;;;296.67;;
25932;SDS011;13731;51.166;4.474;2023-12-20T00:06:34;327.70;;;308.30;;
25932;SDS011;13731;51.166;4.474;2023-12-20T00:08:59;299.52;;;281.85;;
25932;SDS011;13731;51.166;4.474;2023-12-20T00:11:25;320.42;;;300.80;;
25932;SDS011;13731;51.166;4.474;2023-12-20T00:13:51;311.42;;;293.13;;
25932;SDS011;13731;51.166;4.474;2023-12-20T00:16:17;292.38;;;275.88;;
25932;SDS011;13731;51.166;4.474;2023-12-20T00:18:44;302.70;;;285.10;;
25932;SDS011;13731;51.166;4.474;2023-12-20T00:21:09;317.95;;;298.77;;
25932;SDS011;13731;51.166;4.474;2023-12-20T00:23:36;276.83;;;260.70;;
25932;SDS011;13731;51.166;4.474;2023-12-20T00:26:01;339.27;;;319.58;;
25932;SDS011;13731;51.166;4.474;2023-12-20T00:28:28;338.92;;;319.85;;
25932;SDS011;13731;51.166;4.474;2023-12-20T00:30:53;346.52;;;326.25;;
25932;SDS011;13731;51.166;4.474;2023-12-20T00:33:19;332.50;;;312.98;;
25932;SDS011;13731;51.166;4.474;2023-12-20T00:35:45;313.38;;;295.33;;
25932;SDS011;13731;51.166;4.474;2023-12-20T00:38:11;335.70;;;316.52;;
25932;SDS011;13731;51.166;4.474;2023-12-20T00:40:37;333.88;;;314.08;;
25932;SDS011;13731;51.166;4.474;2023-12-20T00:43:03;292.85;;;276.27;;
25932;SDS011;13731;51.166;4.474;2023-12-20T00:45:29;288.55;;;271.10;;
25932;SDS011;13731;51.166;4.474;2023-12-20T00:47:55;293.02;;;275.63;;
25932;SDS011;13731;51.166;4.474;2023-12-20T00:50:21;332.17;;;313.23;;
25932;SDS011;13731;51.166;4.474;2023-12-20T00:52:50;263.30;;;247.50;;
25932;SDS011;13731;51.166;4.474;2023-12-20T00:55:16;263.27;;;248.15;;
25932;SDS011;13731;51.166;4.474;2023-12-20T00:57:42;278.20;;;262.40;;
25932;SDS011;13731;51.166;4.474;2023-12-20T01:00:08;296.88;;;279.15;;
25932;SDS011;13731;51.166;4.474;2023-12-20T01:02:38;285.58;;;268.17;;
25932;SDS011;13731;51.166;4.474;2023-12-20T01:05:05;296.35;;;279.48;;
25932;SDS011;13731;51.166;4.474;2023-12-20T01:07:32;289.25;;;272.95;;
25932;SDS011;13731;51.166;4.474;2023-12-20T01:09:58;288.45;;;271.60;;
25932;SDS011;13731;51.166;4.474;2023-12-20T01:12:24;298.70;;;280.55;;
25932;SDS011;13731;51.166;4.474;2023-12-20T01:14:50;287.95;;;270.83;;
25932;SDS011;13731;51.166;4.474;2023-12-20T01:17:16;278.05;;;262.30;;
25932;SDS011;13731;51.166;4.474;2023-12-20T01:19:42;288.17;;;270.67;;
25932;SDS011;13731;51.166;4.474;2023-12-20T01:22:08;283.80;;;267.83;;
25932;SDS011;13731;51.166;4.474;2023-12-20T01:24:33;317.15;;;300.20;;
25932;SDS011;13731;51.166;4.474;2023-12-20T01:26:59;274.33;;;258.52;;
25932;SDS011;13731;51.166;4.474;2023-12-20T01:29:25;274.98;;;259.75;;
25932;SDS011;13731;51.166;4.474;2023-12-20T01:31:52;278.83;;;262.73;;
25932;SDS011;13731;51.166;4.474;2023-12-20T01:34:18;280.20;;;263.73;;
25932;SDS011;13731;51.166;4.474;2023-12-20T01:36:44;281.98;;;266.30;;
25932;SDS011;13731;51.166;4.474;2023-12-20T01:39:10;297.95;;;280.95;;
25932;SDS011;13731;51.166;4.474;2023-12-20T01:41:36;294.70;;;277.20;;
25932;SDS011;13731;51.166;4.474;2023-12-20T01:44:02;262.35;;;247.18;;
25932;SDS011;13731;51.166;4.474;2023-12-20T01:46:29;273.95;;;259.13;;
25932;SDS011;13731;51.166;4.474;2023-12-20T01:48:56;294.42;;;277.33;;
25932;SDS011;13731;51.166;4.474;2023-12-20T01:51:23;270.15;;;254.50;;
25932;SDS011;13731;51.166;4.474;2023-12-20T01:53:50;287.38;;;271.05;;
25932;SDS011;13731;51.166;4.474;2023-12-20T01:56:16;272.73;;;256.85;;
25932;SDS011;13731;51.166;4.474;2023-12-20T01:58:43;280.40;;;263.83;;
25932;SDS011;13731;51.166;4.474;2023-12-20T02:01:11;265.23;;;249.90;;
25932;SDS011;13731;51.166;4.474;2023-12-20T02:03:39;255.93;;;241.32;;
25932;SDS011;13731;51.166;4.474;2023-12-20T02:06:07;261.27;;;245.55;;
25932;SDS011;13731;51.166;4.474;2023-12-20T02:08:33;279.33;;;262.63;;
25932;SDS011;13731;51.166;4.474;2023-12-20T02:10:59;273.63;;;256.88;;
25932;SDS011;13731;51.166;4.474;2023-12-20T02:13:25;271.25;;;255.15;;
25932;SDS011;13731;51.166;4.474;2023-12-20T02:15:52;272.67;;;257.35;;
25932;SDS011;13731;51.166;4.474;2023-12-20T02:18:18;287.88;;;269.95;;
25932;SDS011;13731;51.166;4.474;2023-12-20T02:20:44;288.98;;;271.88;;
25932;SDS011;13731;51.166;4.474;2023-12-20T02:23:13;277.05;;;260.67;;
25932;SDS011;13731;51.166;4.474;2023-12-20T02:25:39;277.98;;;262.17;;
25932;SDS011;13731;51.166;4.474;2023-12-20T02:28:05;284.73;;;268.13;;
25932;SDS011;13731;51.166;4.474;2023-12-20T02:30:32;267.77;;;252.25;;
25932;SDS011;13731;51.166;4.474;2023-12-20T02:32:59;295.25;;;277.83;;
25932;SDS011;13731;51.166;4.474;2023-12-20T02:35:26;270.05;;;254.27;;
25932;SDS011;13731;51.166;4.474;2023-12-20T02:37:52;273.13;;;258.15;;
25932;SDS011;13731;51.166;4.474;2023-12-20T02:40:18;268.13;;;252.35;;
25932;SDS011;13731;51.166;4.474;2023-12-20T02:42:44;290.55;;;274.73;;
25932;SDS011;13731;51.166;4.474;2023-12-20T02:45:09;291.40;;;275.42;;
25932;SDS011;13731;51.166;4.474;2023-12-20T02:47:35;281.42;;;265.13;;
25932;SDS011;13731;51.166;4.474;2023-12-20T02:50:01;274.52;;;258.45;;
25932;SDS011;13731;51.166;4.474;2023-12-20T02:52:27;260.30;;;245.57;;
25932;SDS011;13731;51.166;4.474;2023-12-20T02:54:55;280.08;;;264.20;;
25932;SDS011;13731;51.166;4.474;2023-12-20T02:57:21;293.08;;;276.25;;
25932;SDS011;13731;51.166;4.474;2023-12-20T02:59:47;272.50;;;257.10;;
25932;SDS011;13731;51.166;4.474;2023-12-20T03:02:13;265.80;;;250.80;;
25932;SDS011;13731;51.166;4.474;2023-12-20T03:04:39;277.30;;;261.75;;
25932;SDS011;13731;51.166;4.474;2023-12-20T03:07:05;280.15;;;263.92;;
25932;SDS011;13731;51.166;4.474;2023-12-20T03:09:31;292.40;;;276.58;;
25932;SDS011;13731;51.166;4.474;2023-12-20T03:11:56;294.60;;;277.45;;
25932;SDS011;13731;51.166;4.474;2023-12-20T03:14:22;317.85;;;299.52;;
25932;SDS011;13731;51.166;4.474;2023-12-20T03:16:49;318.60;;;300.85;;
25932;SDS011;13731;51.166;4.474;2023-12-20T03:19:17;310.95;;;293.40;;
25932;SDS011;13731;51.166;4.474;2023-12-20T03:21:44;324.10;;;305.33;;
25932;SDS011;13731;51.166;4.474;2023-12-20T03:24:10;301.02;;;282.95;;
25932;SDS011;13731;51.166;4.474;2023-12-20T03:26:36;244.70;;;230.38;;
25932;SDS011;13731;51.166;4.474;2023-12-20T03:29:05;268.63;;;252.63;;
25932;SDS011;13731;51.166;4.474;2023-12-20T03:31:31;289.77;;;273.58;;
25932;SDS011;13731;51.166;4.474;2023-12-20T03:33:57;299.25;;;282.50;;
25932;SDS011;13731;51.166;4.474;2023-12-20T03:36:23;328.65;;;309.48;;
25932;SDS011;13731;51.166;4.474;2023-12-20T03:38:49;308.88;;;291.52;;
25932;SDS011;13731;51.166;4.474;2023-12-20T03:41:15;272.63;;;256.98;;
25932;SDS011;13731;51.166;4.474;2023-12-20T03:43:41;277.23;;;261.45;;
25932;SDS011;13731;51.166;4.474;2023-12-20T03:46:10;311.80;;;293.42;;
25932;SDS011;13731;51.166;4.474;2023-12-20T03:48:36;310.30;;;292.70;;
25932;SDS011;13731;51.166;4.474;2023-12-20T03:51:02;286.77;;;271.00;;
25932;SDS011;13731;51.166;4.474;2023-12-20T03:53:28;313.77;;;296.92;;
25932;SDS011;13731;51.166;4.474;2023-12-20T03:55:54;317.58;;;299.58;;
25932;SDS011;13731;51.166;4.474;2023-12-20T03:58:20;265.10;;;249.90;;
25932;SDS011;13731;51.166;4.474;2023-12-20T04:00:46;275.20;;;259.35;;
25932;SDS011;13731;51.166;4.474;2023-12-20T04:03:15;278.50;;;263.00;;
25932;SDS011;13731;51.166;4.474;2023-12-20T04:05:41;327.48;;;308.67;;
25932;SDS011;13731;51.166;4.474;2023-12-20T04:08:07;318.10;;;299.70;;
25932;SDS011;13731;51.166;4.474;2023-12-20T04:10:33;331.73;;;311.85;;
25932;SDS011;13731;51.166;4.474;2023-12-20T04:13:01;299.38;;;281.70;;
25932;SDS011;13731;51.166;4.474;2023-12-20T04:15:27;308.83;;;291.48;;
25932;SDS011;13731;51.166;4.474;2023-12-20T04:17:52;280.80;;;265.50;;
25932;SDS011;13731;51.166;4.474;2023-12-20T04:20:18;285.38;;;269.40;;
25932;SDS011;13731;51.166;4.474;2023-12-20T04:22:44;275.95;;;259.85;;
25932;SDS011;13731;51.166;4.474;2023-12-20T04:25:10;286.77;;;270.42;;
25932;SDS011;13731;51.166;4.474;2023-12-20T04:27:36;274.08;;;258.42;;
25932;SDS011;13731;51.166;4.474;2023-12-20T04:30:02;283.65;;;266.70;;
25932;SDS011;13731;51.166;4.474;2023-12-20T04:32:29;264.30;;;248.90;;
25932;SDS011;13731;51.166;4.474;2023-12-20T04:34:54;279.63;;;263.52;;
25932;SDS011;13731;51.166;4.474;2023-12-20T04:37:23;258.38;;;241.93;;
25932;SDS011;13731;51.166;4.474;2023-12-20T04:42:15;289.15;;;273.00;;
25932;SDS011;13731;51.166;4.474;2023-12-20T04:44:41;279.60;;;263.30;;
25932;SDS011;13731;51.166;4.474;2023-12-20T04:47:09;286.08;;;269.70;;
25932;SDS011;13731;51.166;4.474;2023-12-20T04:49:35;270.70;;;255.20;;
25932;SDS011;13731;51.166;4.474;2023-12-20T04:52:00;288.30;;;271.08;;
25932;SDS011;13731;51.166;4.474;2023-12-20T04:54:26;293.92;;;276.80;;
25932;SDS011;13731;51.166;4.474;2023-12-20T04:56:52;300.15;;;282.63;;
25932;SDS011;13731;51.166;4.474;2023-12-20T04:59:18;280.45;;;263.88;;
25932;SDS011;13731;51.166;4.474;2023-12-20T05:01:44;273.75;;;258.20;;
25932;SDS011;13731;51.166;4.474;2023-12-20T05:04:10;282.77;;;267.42;;
25932;SDS011;13731;51.166;4.474;2023-12-20T05:06:36;282.67;;;265.58;;
25932;SDS011;13731;51.166;4.474;2023-12-20T05:09:02;278.48;;;261.60;;
25932;SDS011;13731;51.166;4.474;2023-12-20T05:11:28;289.95;;;273.27;;
25932;SDS011;13731;51.166;4.474;2023-12-20T05:13:55;262.23;;;246.40;;
25932;SDS011;13731;51.166;4.474;2023-12-20T05:16:21;286.73;;;270.75;;
25932;SDS011;13731;51.166;4.474;2023-12-20T05:18:48;273.15;;;257.10;;
25932;SDS011;13731;51.166;4.474;2023-12-20T05:21:17;294.02;;;277.20;;
25932;SDS011;13731;51.166;4.474;2023-12-20T05:23:43;272.50;;;256.92;;
25932;SDS011;13731;51.166;4.474;2023-12-20T05:26:09;352.52;;;330.10;;
25932;SDS011;13731;51.166;4.474;2023-12-20T05:28:36;281.80;;;265.05;;
25932;SDS011;13731;51.166;4.474;2023-12-20T05:31:02;293.05;;;276.60;;
25932;SDS011;13731;51.166;4.474;2023-12-20T05:33:28;282.40;;;266.33;;
25932;SDS011;13731;51.166;4.474;2023-12-20T05:35:55;294.23;;;277.70;;
25932;SDS011;13731;51.166;4.474;2023-12-20T05:38:22;286.27;;;269.42;;
25932;SDS011;13731;51.166;4.474;2023-12-20T05:40:48;285.48;;;269.13;;
25932;SDS011;13731;51.166;4.474;2023-12-20T05:43:14;353.05;;;333.05;;
25932;SDS011;13731;51.166;4.474;2023-12-20T05:45:40;281.42;;;265.48;;
25932;SDS011;13731;51.166;4.474;2023-12-20T05:48:07;275.02;;;258.70;;
25932;SDS011;13731;51.166;4.474;2023-12-20T05:50:33;285.70;;;268.60;;
25932;SDS011;13731;51.166;4.474;2023-12-20T05:53:00;284.45;;;268.30;;
25932;SDS011;13731;51.166;4.474;2023-12-20T05:55:26;261.30;;;246.75;;
25932;SDS011;13731;51.166;4.474;2023-12-20T05:57:52;293.00;;;275.92;;
25932;SDS011;13731;51.166;4.474;2023-12-20T06:00:18;283.50;;;266.75;;
25932;SDS011;13731;51.166;4.474;2023-12-20T06:02:44;277.67;;;262.02;;
25932;SDS011;13731;51.166;4.474;2023-12-20T06:05:10;289.65;;;272.92;;
25932;SDS011;13731;51.166;4.474;2023-12-20T06:07:35;296.77;;;279.63;;
25932;SDS011;13731;51.166;4.474;2023-12-20T06:10:02;264.75;;;249.77;;
25932;SDS011;13731;51.166;4.474;2023-12-20T06:12:28;294.23;;;277.42;;
25932;SDS011;13731;51.166;4.474;2023-12-20T06:14:54;291.85;;;275.67;;
25932;SDS011;13731;51.166;4.474;2023-12-20T06:17:20;284.65;;;268.55;;
25932;SDS011;13731;51.166;4.474;2023-12-20T06:19:46;286.88;;;270.23;;
25932;SDS011;13731;51.166;4.474;2023-12-20T06:22:14;315.08;;;297.52;;
25932;SDS011;13731;51.166;4.474;2023-12-20T06:24:40;362.63;;;341.58;;
25932;SDS011;13731;51.166;4.474;2023-12-20T06:27:06;275.15;;;258.73;;
25932;SDS011;13731;51.166;4.474;2023-12-20T06:29:32;330.88;;;312.05;;
25932;SDS011;13731;51.166;4.474;2023-12-20T06:32:00;298.60;;;282.25;;
25932;SDS011;13731;51.166;4.474;2023-12-20T06:34:26;267.27;;;251.95;;
25932;SDS011;13731;51.166;4.474;2023-12-20T06:36:51;296.45;;;280.10;;
25932;SDS011;13731;51.166;4.474;2023-12-20T06:39:17;272.83;;;257.55;;
25932;SDS011;13731;51.166;4.474;2023-12-20T06:41:43;362.17;;;341.67;;
25932;SDS011;13731;51.166;4.474;2023-12-20T06:44:09;297.00;;;280.17;;
25932;SDS011;13731;51.166;4.474;2023-12-20T06:46:35;254.85;;;240.95;;
25932;SDS011;13731;51.166;4.474;2023-12-20T06:49:00;288.60;;;272.38;;
25932;SDS011;13731;51.166;4.474;2023-12-20T06:51:27;272.63;;;257.75;;
25932;SDS011;13731;51.166;4.474;2023-12-20T06:53:53;298.08;;;281.30;;
25932;SDS011;13731;51.166;4.474;2023-12-20T06:56:19;322.38;;;303.98;;
25932;SDS011;13731;51.166;4.474;2023-12-20T06:58:45;296.67;;;280.17;;
25932;SDS011;13731;51.166;4.474;2023-12-20T07:01:12;275.90;;;260.65;;
25932;SDS011;13731;51.166;4.474;2023-12-20T07:03:40;328.95;;;309.92;;
25932;SDS011;13731;51.166;4.474;2023-12-20T07:06:06;323.38;;;305.23;;
25932;SDS011;13731;51.166;4.474;2023-12-20T07:08:33;313.80;;;295.65;;
25932;SDS011;13731;51.166;4.474;2023-12-20T07:10:59;409.92;;;378.02;;
25932;SDS011;13731;51.166;4.474;2023-12-20T07:13:25;332.13;;;313.05;;
25932;SDS011;13731;51.166;4.474;2023-12-20T07:15:50;258.95;;;244.50;;
25932;SDS011;13731;51.166;4.474;2023-12-20T07:18:16;270.38;;;255.60;;
25932;SDS011;13731;51.166;4.474;2023-12-20T07:20:42;255.63;;;241.18;;
25932;SDS011;13731;51.166;4.474;2023-12-20T07:23:08;289.58;;;273.10;;
25932;SDS011;13731;51.166;4.474;2023-12-20T07:25:34;283.13;;;267.17;;
25932;SDS011;13731;51.166;4.474;2023-12-20T07:28:00;264.38;;;250.13;;
25932;SDS011;13731;51.166;4.474;2023-12-20T07:30:26;278.67;;;263.15;;
25932;SDS011;13731;51.166;4.474;2023-12-20T07:32:52;263.40;;;248.32;;
25932;SDS011;13731;51.166;4.474;2023-12-20T07:35:18;301.38;;;284.98;;
25932;SDS011;13731;51.166;4.474;2023-12-20T07:37:44;295.80;;;280.38;;
25932;SDS011;13731;51.166;4.474;2023-12-20T07:40:11;314.73;;;297.63;;
25932;SDS011;13731;51.166;4.474;2023-12-20T07:42:37;299.27;;;282.70;;
25932;SDS011;13731;51.166;4.474;2023-12-20T07:45:03;321.08;;;302.35;;
25932;SDS011;13731;51.166;4.474;2023-12-20T07:47:29;261.63;;;246.43;;
25932;SDS011;13731;51.166;4.474;2023-12-20T07:49:55;266.73;;;251.38;;
25932;SDS011;13731;51.166;4.474;2023-12-20T07:52:21;270.45;;;256.10;;
25932;SDS011;13731;51.166;4.474;2023-12-20T07:54:48;295.85;;;279.15;;
25932;SDS011;13731;51.166;4.474;2023-12-20T07:57:14;281.52;;;266.08;;
25932;SDS011;13731;51.166;4.474;2023-12-20T07:59:40;275.00;;;259.65;;
25932;SDS011;13731;51.166;4.474;2023-12-20T08:02:06;293.83;;;277.52;;
25932;SDS011;13731;51.166;4.474;2023-12-20T08:04:32;304.35;;;287.50;;
25932;SDS011;13731;51.166;4.474;2023-12-20T08:06:58;342.58;;;323.33;;
25932;SDS011;13731;51.166;4.474;2023-12-20T08:09:25;298.67;;;282.23;;
25932;SDS011;13731;51.166;4.474;2023-12-20T08:11:51;283.70;;;268.52;;
25932;SDS011;13731;51.166;4.474;2023-12-20T08:14:17;284.23;;;267.63;;
25932;SDS011;13731;51.166;4.474;2023-12-20T08:16:42;270.83;;;255.98;;
25932;SDS011;13731;51.166;4.474;2023-12-20T08:19:08;280.55;;;264.65;;
25932;SDS011;13731;51.166;4.474;2023-12-20T08:21:34;280.83;;;265.30;;
25932;SDS011;13731;51.166;4.474;2023-12-20T08:24:00;305.50;;;288.00;;
25932;SDS011;13731;51.166;4.474;2023-12-20T08:26:26;282.73;;;267.73;;
25932;SDS011;13731;51.166;4.474;2023-12-20T08:28:52;293.90;;;278.55;;
25932;SDS011;13731;51.166;4.474;2023-12-20T08:31:18;296.95;;;280.77;;
25932;SDS011;13731;51.166;4.474;2023-12-20T08:33:47;307.05;;;290.70;;
25932;SDS011;13731;51.166;4.474;2023-12-20T08:36:14;309.45;;;292.35;;
25932;SDS011;13731;51.166;4.474;2023-12-20T08:38:40;276.05;;;261.50;;
25932;SDS011;13731;51.166;4.474;2023-12-20T08:41:06;263.48;;;248.85;;
25932;SDS011;13731;51.166;4.474;2023-12-20T08:43:33;254.73;;;240.93;;
25932;SDS011;13731;51.166;4.474;2023-12-20T08:46:00;291.83;;;274.98;;
25932;SDS011;13731;51.166;4.474;2023-12-20T08:48:27;290.40;;;274.30;;
25932;SDS011;13731;51.166;4.474;2023-12-20T08:50:54;300.00;;;282.95;;
25932;SDS011;13731;51.166;4.474;2023-12-20T08:53:20;289.70;;;274.27;;
25932;SDS011;13731;51.166;4.474;2023-12-20T08:55:46;270.48;;;255.32;;
25932;SDS011;13731;51.166;4.474;2023-12-20T08:58:12;429.77;;;403.55;;
25932;SDS011;13731;51.166;4.474;2023-12-20T09:00:39;285.67;;;269.95;;
25932;SDS011;13731;51.166;4.474;2023-12-20T09:03:05;247.50;;;233.98;;
25932;SDS011;13731;51.166;4.474;2023-12-20T09:05:31;280.27;;;264.92;;
25932;SDS011;13731;51.166;4.474;2023-12-20T09:07:57;264.38;;;249.38;;
25932;SDS011;13731;51.166;4.474;2023-12-20T09:10:23;258.02;;;243.90;;
25932;SDS011;13731;51.166;4.474;2023-12-20T09:12:49;304.88;;;287.75;;
25932;SDS011;13731;51.166;4.474;2023-12-20T09:15:25;264.13;;;249.30;;
25932;SDS011;13731;51.166;4.474;2023-12-20T09:17:52;260.00;;;245.35;;
25932;SDS011;13731;51.166;4.474;2023-12-20T09:20:19;288.50;;;272.42;;
25932;SDS011;13731;51.166;4.474;2023-12-20T09:22:45;265.83;;;251.40;;
25932;SDS011;13731;51.166;4.474;2023-12-20T09:25:10;268.80;;;254.23;;
25932;SDS011;13731;51.166;4.474;2023-12-20T09:27:38;286.15;;;270.60;;
25932;SDS011;13731;51.166;4.474;2023-12-20T09:30:04;255.60;;;241.35;;
25932;SDS011;13731;51.166;4.474;2023-12-20T09:32:30;254.88;;;240.50;;
25932;SDS011;13731;51.166;4.474;2023-12-20T09:34:57;261.65;;;247.57;;
25932;SDS011;13731;51.166;4.474;2023-12-20T09:37:25;237.95;;;224.23;;
25932;SDS011;13731;51.166;4.474;2023-12-20T09:39:51;233.65;;;220.85;;
25932;SDS011;13731;51.166;4.474;2023-12-20T09:42:20;217.20;;;205.25;;
25932;SDS011;13731;51.166;4.474;2023-12-20T09:44:50;243.23;;;229.63;;
25932;SDS011;13731;51.166;4.474;2023-12-20T09:47:16;228.00;;;214.95;;
25932;SDS011;13731;51.166;4.474;2023-12-20T09:49:49;249.82;;;235.45;;
25932;SDS011;13731;51.166;4.474;2023-12-20T09:52:16;211.65;;;199.57;;
25932;SDS011;13731;51.166;4.474;2023-12-20T09:54:43;211.18;;;198.77;;
25932;SDS011;13731;51.166;4.474;2023-12-20T09:57:11;244.35;;;230.32;;
25932;SDS011;13731;51.166;4.474;2023-12-20T09:59:36;212.88;;;201.27;;
25932;SDS011;13731;51.166;4.474;2023-12-20T10:02:02;185.45;;;174.68;;
25932;SDS011;13731;51.166;4.474;2023-12-20T10:04:31;191.80;;;181.50;;
25932;SDS011;13731;51.166;4.474;2023-12-20T10:07:01;143.18;;;133.82;;
25932;SDS011;13731;51.166;4.474;2023-12-20T10:09:31;146.75;;;138.48;;
25932;SDS011;13731;51.166;4.474;2023-12-20T10:11:57;147.77;;;139.30;;
25932;SDS011;13731;51.166;4.474;2023-12-20T10:14:23;125.32;;;118.43;;
25932;SDS011;13731;51.166;4.474;2023-12-20T10:16:49;131.85;;;124.43;;
25932;SDS011;13731;51.166;4.474;2023-12-20T10:19:19;151.75;;;142.82;;
25932;SDS011;13731;51.166;4.474;2023-12-20T10:24:11;124.47;;;117.22;;
25932;SDS011;13731;51.166;4.474;2023-12-20T10:26:43;146.38;;;138.55;;
25932;SDS011;13731;51.166;4.474;2023-12-20T10:29:09;145.57;;;137.27;;
25932;SDS011;13731;51.166;4.474;2023-12-20T10:31:36;154.90;;;145.95;;
25932;SDS011;13731;51.166;4.474;2023-12-20T10:34:03;135.07;;;126.78;;
25932;SDS011;13731;51.166;4.474;2023-12-20T10:36:30;137.93;;;129.77;;
25932;SDS011;13731;51.166;4.474;2023-12-20T10:38:58;163.43;;;153.77;;
25932;SDS011;13731;51.166;4.474;2023-12-20T10:41:25;168.73;;;159.07;;
25932;SDS011;13731;51.166;4.474;2023-12-20T10:43:56;151.45;;;143.63;;
25932;SDS011;13731;51.166;4.474;2023-12-20T10:46:25;163.18;;;154.20;;
25932;SDS011;13731;51.166;4.474;2023-12-20T10:48:58;205.25;;;193.82;;
25932;SDS011;13731;51.166;4.474;2023-12-20T10:51:24;177.40;;;167.23;;
25932;SDS011;13731;51.166;4.474;2023-12-20T10:53:55;196.85;;;185.70;;
25932;SDS011;13731;51.166;4.474;2023-12-20T10:56:21;184.57;;;174.50;;
25932;SDS011;13731;51.166;4.474;2023-12-20T10:58:49;174.23;;;164.77;;
25932;SDS011;13731;51.166;4.474;2023-12-20T11:01:16;175.82;;;165.45;;
25932;SDS011;13731;51.166;4.474;2023-12-20T11:03:45;255.75;;;241.75;;
25932;SDS011;13731;51.166;4.474;2023-12-20T11:06:26;263.92;;;249.02;;
25932;SDS011;13731;51.166;4.474;2023-12-20T11:09:06;182.25;;;172.23;;
25932;SDS011;13731;51.166;4.474;2023-12-20T11:14:19;235.15;;;221.10;;
25932;SDS011;13731;51.166;4.474;2023-12-20T11:16:49;288.73;;;272.83;;
25932;SDS011;13731;51.166;4.474;2023-12-20T11:19:16;297.52;;;279.92;;
25932;SDS011;13731;51.166;4.474;2023-12-20T11:21:42;319.42;;;301.00;;
25932;SDS011;13731;51.166;4.474;2023-12-20T11:24:11;309.95;;;292.55;;
25932;SDS011;13731;51.166;4.474;2023-12-20T11:26:36;326.77;;;308.55;;
25932;SDS011;13731;51.166;4.474;2023-12-20T11:34:54;332.05;;;313.02;;
25932;SDS011;13731;51.166;4.474;2023-12-20T11:37:31;344.95;;;324.60;;
25932;SDS011;13731;51.166;4.474;2023-12-20T11:40:01;336.80;;;317.77;;
25932;SDS011;13731;51.166;4.474;2023-12-20T11:42:39;329.80;;;310.45;;
25932;SDS011;13731;51.166;4.474;2023-12-20T11:45:09;316.80;;;297.95;;
25932;SDS011;13731;51.166;4.474;2023-12-20T11:47:36;334.02;;;313.58;;
25932;SDS011;13731;51.166;4.474;2023-12-20T11:50:02;325.02;;;305.30;;
25932;SDS011;13731;51.166;4.474;2023-12-20T11:52:30;358.30;;;336.45;;
25932;SDS011;13731;51.166;4.474;2023-12-20T11:54:56;305.05;;;287.05;;
25932;SDS011;13731;51.166;4.474;2023-12-20T11:57:23;283.65;;;266.25;;
25932;SDS011;13731;51.166;4.474;2023-12-20T11:59:49;308.75;;;290.20;;
25932;SDS011;13731;51.166;4.474;2023-12-20T12:02:15;306.27;;;288.80;;
25932;SDS011;13731;51.166;4.474;2023-12-20T12:04:41;292.88;;;274.67;;
25932;SDS011;13731;51.166;4.474;2023-12-20T12:07:07;284.55;;;267.83;;
25932;SDS011;13731;51.166;4.474;2023-12-20T12:09:34;272.20;;;256.45;;
25932;SDS011;13731;51.166;4.474;2023-12-20T12:12:00;275.95;;;259.58;;
25932;SDS011;13731;51.166;4.474;2023-12-20T12:14:25;291.73;;;273.95;;
25932;SDS011;13731;51.166;4.474;2023-12-20T12:16:52;320.55;;;301.35;;
25932;SDS011;13731;51.166;4.474;2023-12-20T12:19:22;280.33;;;263.08;;
25932;SDS011;13731;51.166;4.474;2023-12-20T12:22:05;279.95;;;263.60;;
25932;SDS011;13731;51.166;4.474;2023-12-20T12:24:41;314.92;;;295.73;;
25932;SDS011;13731;51.166;4.474;2023-12-20T12:27:10;283.45;;;265.75;;
25932;SDS011;13731;51.166;4.474;2023-12-20T12:29:37;295.65;;;278.02;;
25932;SDS011;13731;51.166;4.474;2023-12-20T12:32:04;280.38;;;263.40;;
25932;SDS011;13731;51.166;4.474;2023-12-20T12:34:32;285.42;;;268.65;;
25932;SDS011;13731;51.166;4.474;2023-12-20T12:36:59;298.20;;;280.60;;
25932;SDS011;13731;51.166;4.474;2023-12-20T12:39:25;336.30;;;315.88;;
25932;SDS011;13731;51.166;4.474;2023-12-20T12:41:51;324.23;;;305.02;;
25932;SDS011;13731;51.166;4.474;2023-12-20T12:44:18;314.77;;;296.20;;
25932;SDS011;13731;51.166;4.474;2023-12-20T12:46:47;320.17;;;301.42;;
25932;SDS011;13731;51.166;4.474;2023-12-20T12:49:16;349.67;;;328.92;;
25932;SDS011;13731;51.166;4.474;2023-12-20T12:51:42;351.20;;;330.25;;
25932;SDS011;13731;51.166;4.474;2023-12-20T12:54:09;346.63;;;326.00;;
25932;SDS011;13731;51.166;4.474;2023-12-20T12:56:35;337.48;;;316.83;;
25932;SDS011;13731;51.166;4.474;2023-12-20T12:59:01;372.00;;;350.75;;
25932;SDS011;13731;51.166;4.474;2023-12-20T13:01:28;311.63;;;293.67;;
25932;SDS011;13731;51.166;4.474;2023-12-20T13:03:54;334.35;;;314.15;;
25932;SDS011;13731;51.166;4.474;2023-12-20T13:06:20;342.95;;;323.08;;
25932;SDS011;13731;51.166;4.474;2023-12-20T13:08:46;347.00;;;325.60;;
25932;SDS011;13731;51.166;4.474;2023-12-20T13:11:11;344.05;;;324.27;;
25932;SDS011;13731;51.166;4.474;2023-12-20T13:13:38;350.77;;;330.55;;
25932;SDS011;13731;51.166;4.474;2023-12-20T13:16:04;358.83;;;337.40;;
25932;SDS011;13731;51.166;4.474;2023-12-20T13:18:30;371.33;;;350.08;;
25932;SDS011;13731;51.166;4.474;2023-12-20T13:20:56;374.77;;;352.45;;
25932;SDS011;13731;51.166;4.474;2023-12-20T13:23:21;361.13;;;340.15;;
25932;SDS011;13731;51.166;4.474;2023-12-20T13:25:47;345.40;;;324.00;;
25932;SDS011;13731;51.166;4.474;2023-12-20T13:28:13;329.15;;;309.05;;
25932;SDS011;13731;51.166;4.474;2023-12-20T13:30:39;351.50;;;330.73;;
25932;SDS011;13731;51.166;4.474;2023-12-20T13:33:05;342.27;;;321.77;;
25932;SDS011;13731;51.166;4.474;2023-12-20T13:35:32;358.52;;;337.02;;
25932;SDS011;13731;51.166;4.474;2023-12-20T13:37:59;342.70;;;322.50;;
25932;SDS011;13731;51.166;4.474;2023-12-20T13:40:25;330.77;;;311.35;;
25932;SDS011;13731;51.166;4.474;2023-12-20T13:42:52;334.45;;;315.50;;
25932;SDS011;13731;51.166;4.474;2023-12-20T13:45:17;306.38;;;288.60;;
25932;SDS011;13731;51.166;4.474;2023-12-20T13:47:44;328.67;;;309.50;;
25932;SDS011;13731;51.166;4.474;2023-12-20T13:50:09;333.20;;;313.83;;
25932;SDS011;13731;51.166;4.474;2023-12-20T13:52:35;332.00;;;312.60;;
25932;SDS011;13731;51.166;4.474;2023-12-20T13:55:02;345.25;;;325.73;;
25932;SDS011;13731;51.166;4.474;2023-12-20T13:57:28;332.08;;;312.77;;
25932;SDS011;13731;51.166;4.474;2023-12-20T13:59:56;331.63;;;312.63;;
25932;SDS011;13731;51.166;4.474;2023-12-20T14:02:23;304.60;;;287.52;;
25932;SDS011;13731;51.166;4.474;2023-12-20T14:04:49;312.38;;;294.60;;
25932;SDS011;13731;51.166;4.474;2023-12-20T14:07:15;334.15;;;315.45;;